Time;durP1;ratioP1;P1;durP2;ratioP2;P2;SDS_P1;SDS_P2;PMS_P1;PMS_P2;Temp;Humidity;BMP_temperature;BMP_pressure;BME280_temperature;BME280_humidity;BME280_pressure;Samples;Min_cycle;Max_cycle;Signal;HPM_P1;HPM_P2
2021/06/23 00:01:31;;;;;;;10.40;5.33;;;23.80;69.50;;;;;;6289873;28;20223;-65
2021/06/23 00:04:34;;;;;;;10.27;5.43;;;23.60;70.00;;;;;;6291454;28;20227;-65
2021/06/23 00:07:38;;;;;;;10.33;5.77;;;23.60;70.20;;;;;;6288581;28;20280;-66
2021/06/23 00:10:41;;;;;;;7.50;5.37;;;23.70;70.50;;;;;;6286472;28;20227;-65
2021/06/23 00:13:49;;;;;;;7.30;5.30;;;23.50;70.50;;;;;;6285820;28;20234;-66
2021/06/23 00:16:52;;;;;;;11.07;6.53;;;23.50;71.70;;;;;;6290858;28;20223;-67
2021/06/23 00:19:56;;;;;;;8.07;5.40;;;23.30;72.40;;;;;;6300011;28;20562;-67
2021/06/23 00:22:59;;;;;;;10.20;6.10;;;23.40;73.00;;;;;;6291545;28;20608;-64
2021/06/23 00:26:02;;;;;;;10.90;5.77;;;23.40;73.40;;;;;;6300799;28;20238;-64
2021/06/23 00:29:07;;;;;;;10.70;5.20;;;23.50;73.80;;;;;;6302306;28;20238;-65
2021/06/23 00:32:14;;;;;;;9.47;5.83;;;23.40;74.10;;;;;;6302175;28;20246;-64
2021/06/23 00:35:17;;;;;;;7.40;5.83;;;23.30;74.70;;;;;;6301289;28;20227;-65
2021/06/23 00:38:20;;;;;;;8.03;5.90;;;23.20;75.40;;;;;;6300877;28;20227;-65
2021/06/23 00:41:24;;;;;;;13.67;7.30;;;23.20;76.80;;;;;;6301141;28;20230;-65
2021/06/23 00:44:29;;;;;;;8.73;5.30;;;23.10;76.60;;;;;;6301642;28;20583;-65
2021/06/23 00:47:33;;;;;;;7.60;6.50;;;23.10;76.70;;;;;;6301743;28;20293;-65
2021/06/23 00:50:39;;;;;;;6.93;6.23;;;23.30;76.80;;;;;;6301780;28;20235;-66
2021/06/23 00:53:42;;;;;;;9.03;6.50;;;23.30;76.80;;;;;;6301618;28;20684;-66
2021/06/23 00:56:47;;;;;;;8.67;5.97;;;23.40;76.70;;;;;;6301774;28;20237;-60
2021/06/23 00:59:55;;;;;;;9.30;6.50;;;23.40;76.80;;;;;;6301103;28;20242;-61
2021/06/23 01:02:59;;;;;;;12.20;6.40;;;23.30;76.80;;;;;;6300707;28;20227;-61
2021/06/23 01:06:03;;;;;;;9.97;6.90;;;23.30;77.10;;;;;;6300973;28;20313;-60
2021/06/23 01:09:06;;;;;;;8.40;5.80;;;23.30;77.20;;;;;;6300834;28;20234;-61
2021/06/23 01:12:21;;;;;;;9.60;6.67;;;23.20;77.70;;;;;;6301116;28;20705;-60
2021/06/23 01:15:28;;;;;;;10.00;5.97;;;23.10;77.80;;;;;;6301180;28;20249;-61
2021/06/23 01:18:35;;;;;;;7.60;5.47;;;23.10;78.50;;;;;;6300469;28;20719;-62
2021/06/23 01:21:38;;;;;;;10.10;6.00;;;23.10;78.70;;;;;;6301130;28;20194;-62
2021/06/23 01:24:44;;;;;;;7.40;5.50;;;23.10;78.90;;;;;;6295994;28;20206;-63
2021/06/23 01:27:47;;;;;;;10.17;6.30;;;23.10;79.20;;;;;;6301272;28;20198;-64
2021/06/23 01:30:51;;;;;;;8.23;5.87;;;23.10;79.50;;;;;;6300795;28;20230;-63
2021/06/23 01:33:54;;;;;;;6.30;5.30;;;23.10;80.00;;;;;;6300385;28;20234;-64
2021/06/23 01:36:57;;;;;;;8.90;6.33;;;23.10;80.30;;;;;;6300711;28;20686;-61
2021/06/23 01:40:02;;;;;;;9.97;6.13;;;23.10;80.50;;;;;;6300497;28;20239;-60
2021/06/23 01:43:08;;;;;;;9.57;6.17;;;23.10;80.70;;;;;;6300319;28;20226;-60
2021/06/23 01:46:12;;;;;;;8.90;5.33;;;23.10;80.60;;;;;;6300333;28;20227;-60
2021/06/23 01:49:20;;;;;;;12.83;6.10;;;23.00;80.90;;;;;;6300401;28;20321;-65
2021/06/23 01:52:23;;;;;;;5.83;5.27;;;22.90;81.50;;;;;;6300341;28;20245;-65
2021/06/23 01:55:28;;;;;;;7.60;6.50;;;22.90;82.10;;;;;;6300048;28;20223;-66
2021/06/23 01:58:37;;;;;;;7.60;6.20;;;22.90;82.50;;;;;;6299841;28;20238;-66
2021/06/23 02:01:53;;;;;;;10.30;6.13;;;22.80;82.90;;;;;;6300561;28;20235;-65
2021/06/23 02:05:03;;;;;;;10.90;6.97;;;22.70;83.90;;;;;;6300100;28;20238;-63
2021/06/23 02:08:12;;;;;;;9.80;7.53;;;22.60;84.40;;;;;;6300544;28;20242;-63
2021/06/23 02:11:33;;;;;;;12.40;6.60;;;22.60;85.20;;;;;;6299666;28;20227;-63
2021/06/23 02:14:40;;;;;;;8.50;6.13;;;22.60;85.80;;;;;;6298866;28;20307;-66
2021/06/23 02:17:46;;;;;;;13.20;7.10;;;22.60;86.50;;;;;;6299470;28;20556;-66
2021/06/23 02:20:52;;;;;;;7.43;6.70;;;22.60;86.80;;;;;;6299469;28;20238;-66
2021/06/23 02:23:56;;;;;;;9.20;6.47;;;22.60;87.50;;;;;;6299162;28;20291;-66
2021/06/23 02:27:00;;;;;;;10.77;6.60;;;22.60;88.00;;;;;;6299916;28;20237;-61
2021/06/23 02:30:05;;;;;;;13.17;7.60;;;22.40;89.20;;;;;;6299488;28;20682;-65
2021/06/23 02:33:09;;;;;;;14.07;6.10;;;22.40;89.80;;;;;;6294560;28;20574;-67
2021/06/23 02:36:13;;;;;;;7.40;6.07;;;22.40;90.10;;;;;;6299781;28;20230;-64
2021/06/23 02:39:17;;;;;;;7.37;6.30;;;22.40;90.20;;;;;;6299436;28;20231;-60
2021/06/23 02:42:23;;;;;;;7.90;5.90;;;22.40;90.40;;;;;;6298893;28;20540;-64
2021/06/23 02:45:28;;;;;;;9.80;6.70;;;22.30;90.60;;;;;;6299674;28;20572;-64
2021/06/23 02:48:31;;;;;;;8.70;6.40;;;22.20;91.20;;;;;;6298723;28;20670;-65
2021/06/23 02:51:40;;;;;;;8.37;6.67;;;22.10;91.70;;;;;;6299402;28;20233;-64
2021/06/23 02:54:44;;;;;;;10.30;6.80;;;22.20;92.00;;;;;;6299194;28;20296;-62
2021/06/23 02:57:49;;;;;;;7.30;6.30;;;22.20;92.20;;;;;;6276987;28;20231;-63
2021/06/23 03:00:53;;;;;;;9.93;6.80;;;22.10;92.60;;;;;;6273984;28;20549;-62
2021/06/23 03:03:56;;;;;;;14.87;7.50;;;22.10;92.80;;;;;;6274053;28;20306;-63
2021/06/23 03:07:07;;;;;;;12.93;6.60;;;22.10;93.10;;;;;;6274113;28;20239;-63
2021/06/23 03:10:13;;;;;;;7.53;6.90;;;22.00;93.50;;;;;;6274222;28;20286;-63
2021/06/23 03:13:18;;;;;;;10.73;7.10;;;22.00;93.70;;;;;;6273585;28;20227;-63
2021/06/23 03:16:21;;;;;;;7.00;6.40;;;21.90;94.00;;;;;;6274052;28;20236;-63
2021/06/23 03:19:25;;;;;;;9.90;6.90;;;21.90;94.30;;;;;;6273724;28;20234;-66
2021/06/23 03:22:28;;;;;;;10.27;7.20;;;21.80;95.00;;;;;;6274624;28;20223;-63
2021/06/23 03:25:31;;;;;;;8.80;6.57;;;21.60;95.60;;;;;;6275256;28;20231;-63
2021/06/23 03:28:36;;;;;;;10.23;7.10;;;21.60;95.90;;;;;;6278642;28;20242;-63
2021/06/23 03:31:39;;;;;;;9.57;6.67;;;21.60;96.10;;;;;;6278753;28;20238;-66
2021/06/23 03:34:43;;;;;;;8.83;7.87;;;21.60;96.30;;;;;;6269175;28;20689;-63
2021/06/23 03:37:46;;;;;;;8.07;6.50;;;21.70;96.40;;;;;;6278697;28;20687;-63
2021/06/23 03:40:49;;;;;;;10.00;7.70;;;21.70;96.50;;;;;;6278674;28;20235;-63
2021/06/23 03:43:54;;;;;;;6.73;6.13;;;21.80;96.50;;;;;;6278884;28;20234;-63
2021/06/23 03:46:57;;;;;;;11.20;7.40;;;21.90;96.50;;;;;;6278512;28;20227;-63
2021/06/23 03:50:00;;;;;;;8.07;6.73;;;21.90;96.50;;;;;;6278398;28;20231;-63
2021/06/23 03:53:04;;;;;;;10.60;7.00;;;21.90;96.70;;;;;;6278060;28;20227;-63
2021/06/23 03:56:08;;;;;;;10.37;7.57;;;21.90;96.90;;;;;;6278809;28;20246;-63
2021/06/23 03:59:12;;;;;;;9.60;7.30;;;21.90;97.10;;;;;;6278128;28;20239;-62
2021/06/23 04:02:15;;;;;;;9.57;7.53;;;21.90;97.00;;;;;;6278446;28;20227;-62
2021/06/23 04:05:19;;;;;;;9.00;7.20;;;21.90;97.30;;;;;;6278571;28;20227;-63
2021/06/23 04:08:22;;;;;;;8.57;7.30;;;21.90;97.40;;;;;;6278210;28;20250;-63
2021/06/23 04:11:25;;;;;;;9.27;7.43;;;22.00;97.50;;;;;;6278211;28;20235;-63
2021/06/23 04:14:30;;;;;;;12.70;8.40;;;22.00;97.20;;;;;;6277833;28;20231;-63
2021/06/23 04:17:33;;;;;;;15.60;7.80;;;22.10;97.30;;;;;;6277913;28;20238;-63
2021/06/23 04:20:36;;;;;;;14.77;9.20;;;22.20;97.10;;;;;;6277808;28;20725;-63
2021/06/23 04:23:40;;;;;;;12.40;8.30;;;22.10;96.20;;;;;;6278060;28;20227;-62
2021/06/23 04:26:43;;;;;;;12.30;8.67;;;22.20;96.00;;;;;;6277591;28;20227;-63
2021/06/23 04:29:48;;;;;;;9.60;7.50;;;22.20;96.00;;;;;;6277627;28;20683;-63
2021/06/23 04:32:52;;;;;;;10.47;7.80;;;22.30;95.90;;;;;;6277394;28;20246;-63
2021/06/23 04:35:55;;;;;;;9.53;7.97;;;22.40;95.90;;;;;;6277510;28;20231;-63
2021/06/23 04:38:59;;;;;;;11.40;8.30;;;22.60;95.70;;;;;;6271559;28;20315;-64
2021/06/23 04:42:02;;;;;;;9.10;8.20;;;22.70;95.40;;;;;;6277695;28;20242;-64
2021/06/23 04:45:10;;;;;;;15.10;8.40;;;22.90;95.40;;;;;;6277207;28;20639;-64
2021/06/23 04:48:13;;;;;;;10.70;8.33;;;23.10;95.30;;;;;;6277114;28;20258;-63
2021/06/23 04:51:17;;;;;;;10.77;8.20;;;23.20;95.00;;;;;;6276672;28;20563;-63
2021/06/23 04:54:20;;;;;;;12.97;8.83;;;23.40;94.80;;;;;;6277334;28;20253;-63
2021/06/23 04:57:24;;;;;;;9.80;8.00;;;23.60;94.30;;;;;;6277271;28;20310;-64
2021/06/23 05:00:28;;;;;;;14.33;8.80;;;23.60;94.20;;;;;;6276598;28;20235;-63
2021/06/23 05:03:32;;;;;;;15.33;9.27;;;23.80;94.00;;;;;;6276816;28;20548;-63
2021/06/23 05:06:36;;;;;;;11.03;7.90;;;24.00;93.80;;;;;;6276720;28;20579;-63
2021/06/23 05:09:39;;;;;;;11.90;8.67;;;24.10;93.50;;;;;;6276882;28;20219;-63
2021/06/23 05:12:42;;;;;;;12.27;8.23;;;24.30;93.10;;;;;;6276472;28;20682;-63
2021/06/23 05:15:52;;;;;;;11.87;9.07;;;24.30;92.70;;;;;;6276790;28;20203;-63
2021/06/23 05:18:55;;;;;;;10.30;8.43;;;24.50;92.70;;;;;;6276472;28;20242;-61
2021/06/23 05:22:01;;;;;;;11.30;9.27;;;24.70;92.30;;;;;;6276864;28;20694;-63
2021/06/23 05:25:05;;;;;;;15.93;9.50;;;24.80;91.90;;;;;;6276576;28;20227;-62
2021/06/23 05:28:08;;;;;;;14.00;10.10;;;24.90;91.70;;;;;;6276596;28;20573;-63
2021/06/23 05:31:13;;;;;;;19.87;9.57;;;25.00;91.70;;;;;;6276193;28;20228;-63
2021/06/23 05:34:16;;;;;;;23.37;11.70;;;25.10;91.40;;;;;;6276327;28;20328;-63
2021/06/23 05:37:20;;;;;;;14.17;9.10;;;25.20;91.50;;;;;;6276039;28;20243;-64
2021/06/23 05:40:23;;;;;;;11.43;9.77;;;25.30;91.30;;;;;;6276133;28;20239;-63
2021/06/23 05:43:27;;;;;;;18.17;10.90;;;25.50;90.90;;;;;;6271287;28;20250;-63
2021/06/23 05:46:31;;;;;;;13.60;11.30;;;25.60;90.70;;;;;;6275732;28;20237;-63
2021/06/23 05:49:34;;;;;;;14.13;9.43;;;25.80;90.70;;;;;;6275768;28;20233;-63
2021/06/23 05:52:38;;;;;;;17.57;9.90;;;26.00;90.60;;;;;;6275267;28;20556;-60
2021/06/23 05:55:41;;;;;;;12.17;9.17;;;26.10;90.40;;;;;;6276525;28;20242;-65
2021/06/23 05:58:44;;;;;;;19.00;10.23;;;26.20;90.00;;;;;;6275560;28;20231;-63
2021/06/23 06:01:49;;;;;;;14.27;9.57;;;26.30;89.20;;;;;;6275502;28;20721;-63
2021/06/23 06:04:52;;;;;;;16.20;9.50;;;26.60;87.60;;;;;;6275674;28;20307;-62
2021/06/23 06:07:55;;;;;;;15.87;9.30;;;26.70;86.50;;;;;;6275781;28;20241;-63
2021/06/23 06:10:59;;;;;;;12.73;8.50;;;26.90;85.60;;;;;;6275484;28;20231;-62
2021/06/23 06:14:02;;;;;;;11.00;8.13;;;27.20;84.50;;;;;;6275232;28;20230;-64
2021/06/23 06:17:07;;;;;;;12.70;8.03;;;27.50;83.10;;;;;;6275053;28;20249;-66
2021/06/23 06:20:12;;;;;;;17.33;9.00;;;28.10;81.00;;;;;;6275088;28;20234;-65
2021/06/23 06:23:15;;;;;;;12.77;8.87;;;28.60;78.30;;;;;;6275402;28;20547;-66
2021/06/23 06:26:19;;;;;;;12.10;8.00;;;29.10;77.40;;;;;;6274914;28;20564;-66
2021/06/23 06:29:23;;;;;;;10.40;8.17;;;29.40;75.80;;;;;;6275047;28;20577;-66
2021/06/23 06:32:27;;;;;;;12.83;7.63;;;30.10;73.50;;;;;;6274491;28;20231;-66
2021/06/23 06:35:31;;;;;;;11.93;8.00;;;30.70;69.20;;;;;;6274809;28;20721;-66
2021/06/23 06:38:34;;;;;;;8.53;7.23;;;31.20;67.30;;;;;;6274519;28;20231;-66
2021/06/23 06:41:37;;;;;;;10.37;7.90;;;31.50;66.50;;;;;;6274687;28;20218;-67
2021/06/23 06:44:40;;;;;;;10.25;8.10;;;31.80;65.60;;;;;;6274498;28;20239;-65
2021/06/23 06:47:45;;;;;;;10.02;7.53;;;32.20;63.20;;;;;;6265499;28;20238;-67
2021/06/23 06:50:49;;;;;;;11.00;7.05;;;32.70;60.10;;;;;;6274134;28;20697;-66
2021/06/23 06:53:52;;;;;;;13.57;7.07;;;33.50;58.10;;;;;;6274416;28;20253;-66
2021/06/23 06:56:55;;;;;;;13.43;7.45;;;34.20;55.80;;;;;;6274197;28;20222;-65
2021/06/23 06:59:58;;;;;;;10.30;8.30;;;34.10;56.20;;;;;;6274021;28;20713;-66
2021/06/23 07:03:03;;;;;;;8.80;7.90;;;34.20;56.50;;;;;;6274066;28;20227;-65
2021/06/23 07:06:06;;;;;;;12.45;7.85;;;34.10;56.00;;;;;;6273947;28;20227;-65
2021/06/23 07:09:10;;;;;;;9.40;7.20;;;34.20;55.10;;;;;;6291424;28;20253;-59
2021/06/23 07:12:14;;;;;;;12.00;7.72;;;34.50;54.00;;;;;;6273613;28;20504;-60
2021/06/23 07:15:17;;;;;;;10.00;8.70;;;35.10;54.30;;;;;;6279747;28;20232;-60
2021/06/23 07:18:22;;;;;;;12.52;8.38;;;35.90;52.70;;;;;;6293966;28;20696;-60
2021/06/23 07:21:26;;;;;;;9.77;8.05;;;36.40;52.20;;;;;;6298424;28;20542;-60
2021/06/23 07:24:30;;;;;;;13.23;8.85;;;36.70;51.60;;;;;;6298588;28;20254;-59
2021/06/23 07:27:34;;;;;;;11.32;8.95;;;36.90;50.00;;;;;;6298376;28;20257;-60
2021/06/23 07:30:39;;;;;;;8.90;8.00;;;36.50;50.30;;;;;;6298629;28;20311;-63
2021/06/23 07:33:52;;;;;;;13.32;8.30;;;37.50;49.40;;;;;;6297858;28;20245;-67
2021/06/23 07:36:57;;;;;;;10.48;7.82;;;37.50;49.10;;;;;;6298264;28;20666;-61
2021/06/23 07:40:04;;;;;;;8.73;7.88;;;37.40;47.00;;;;;;6298520;28;20234;-60
2021/06/23 07:43:07;;;;;;;9.23;8.07;;;37.30;47.80;;;;;;6297294;28;20226;-59
2021/06/23 07:46:11;;;;;;;8.30;7.45;;;36.10;50.20;;;;;;6298536;28;20546;-61
2021/06/23 07:49:35;;;;;;;8.82;8.02;;;36.40;49.40;;;;;;6293612;28;20559;-60
2021/06/23 07:52:45;;;;;;;11.70;7.57;;;36.40;49.80;;;;;;6297737;28;20237;-60
2021/06/23 07:55:56;;;;;;;9.20;8.20;;;36.20;50.50;;;;;;6298364;28;20350;-61
2021/06/23 08:09:13;;;;;;;9.18;8.43;;;34.90;51.80;;;;;;6272847;28;20243;-61
2021/06/23 08:12:22;;;;;;;10.38;9.48;;;34.50;52.40;;;;;;6276630;28;20735;-60
2021/06/23 08:15:28;;;;;;;13.38;8.70;;;34.40;52.90;;;;;;6280361;28;20272;-63
2021/06/23 08:18:31;;;;;;;9.90;8.82;;;34.20;53.60;;;;;;6308239;28;20530;-63
2021/06/23 08:21:36;;;;;;;9.18;8.27;;;34.00;53.70;;;;;;6277100;28;20227;-64
2021/06/23 08:24:40;;;;;;;9.95;7.75;;;33.90;54.10;;;;;;6280211;28;20218;-64
2021/06/23 08:27:44;;;;;;;10.82;8.70;;;33.80;54.70;;;;;;6291696;28;20210;-66
2021/06/23 08:30:47;;;;;;;12.98;9.15;;;33.30;55.10;;;;;;6277473;28;20219;-63
2021/06/23 08:33:53;;;;;;;10.32;8.55;;;32.70;56.80;;;;;;6276848;28;20227;-64
2021/06/23 08:36:57;;;;;;;12.38;8.88;;;32.80;56.90;;;;;;6291918;28;20233;-64
2021/06/23 08:40:01;;;;;;;11.40;8.95;;;32.60;57.40;;;;;;6301948;28;20570;-64
2021/06/23 08:43:04;;;;;;;12.80;8.95;;;32.50;57.90;;;;;;6301511;28;20561;-63
2021/06/23 08:46:07;;;;;;;11.00;10.00;;;32.60;57.90;;;;;;6301246;28;20944;-64
2021/06/23 08:49:12;;;;;;;10.02;9.05;;;32.30;58.10;;;;;;6301683;28;20241;-63
2021/06/23 08:52:17;;;;;;;9.98;8.70;;;32.20;58.90;;;;;;6301018;28;20245;-63
2021/06/23 08:55:21;;;;;;;10.88;9.77;;;32.20;58.20;;;;;;6301692;28;20245;-64
2021/06/23 08:58:25;;;;;;;11.25;10.00;;;32.20;59.20;;;;;;6301436;28;20245;-64
2021/06/23 09:01:32;;;;;;;11.02;9.68;;;32.20;60.50;;;;;;6301145;28;20578;-63
2021/06/23 09:04:35;;;;;;;10.45;9.45;;;32.10;59.50;;;;;;6301415;28;20681;-63
2021/06/23 09:07:46;;;;;;;10.30;9.40;;;32.30;59.60;;;;;;6301068;28;20253;-62
2021/06/23 09:10:49;;;;;;;10.65;9.38;;;32.50;59.40;;;;;;6299217;28;20233;-63
2021/06/23 09:13:52;;;;;;;10.00;9.00;;;32.50;58.90;;;;;;6300607;28;20555;-63
2021/06/23 09:17:05;;;;;;;10.10;8.90;;;32.70;60.10;;;;;;6301059;28;20230;-63
2021/06/23 09:20:35;;;;;;;9.88;8.98;;;32.90;59.80;;;;;;6300722;28;20229;-63
2021/06/23 09:23:42;;;;;;;11.30;10.25;;;32.80;60.80;;;;;;6300473;28;20670;-64
2021/06/23 09:26:46;;;;;;;11.50;10.40;;;32.80;60.40;;;;;;6300484;28;20720;-64
2021/06/23 09:29:51;;;;;;;12.02;10.95;;;32.70;60.00;;;;;;6300212;28;20233;-63
2021/06/23 09:33:06;;;;;;;13.13;10.00;;;32.70;60.00;;;;;;6299584;28;20571;-63
2021/06/23 09:36:12;;;;;;;10.13;9.10;;;32.20;62.20;;;;;;6300258;28;20552;-63
2021/06/23 09:39:36;;;;;;;10.60;9.65;;;32.10;62.20;;;;;;6300395;28;20315;-62
2021/06/23 09:42:42;;;;;;;12.15;10.20;;;32.30;61.30;;;;;;6299860;28;20202;-63
2021/06/23 09:45:53;;;;;;;10.48;9.57;;;32.60;61.40;;;;;;6299669;28;20190;-62
2021/06/23 09:49:08;;;;;;;11.15;10.02;;;32.20;62.60;;;;;;6299681;28;20568;-63
2021/06/23 09:52:13;;;;;;;11.45;10.45;;;31.90;62.80;;;;;;6300242;28;20234;-64
2021/06/23 09:55:18;;;;;;;11.02;9.52;;;31.80;61.90;;;;;;6300327;28;20241;-63
2021/06/23 09:58:25;;;;;;;10.30;9.45;;;32.00;61.40;;;;;;6295175;28;20567;-64
2021/06/23 10:01:30;;;;;;;10.45;9.55;;;32.20;61.10;;;;;;6299976;28;20237;-62
2021/06/23 10:04:34;;;;;;;11.77;10.45;;;32.20;59.80;;;;;;6300040;28;20245;-64
2021/06/23 10:07:43;;;;;;;11.82;10.35;;;32.20;61.30;;;;;;6299964;28;20689;-65
2021/06/23 10:10:47;;;;;;;11.13;10.20;;;32.40;59.60;;;;;;6299980;28;20234;-64
2021/06/23 10:13:50;;;;;;;11.07;8.77;;;32.50;59.10;;;;;;6299796;28;20572;-64
2021/06/23 10:16:55;;;;;;;12.63;10.45;;;32.70;59.00;;;;;;6299212;28;20230;-64
2021/06/23 10:20:00;;;;;;;11.18;9.88;;;32.80;59.30;;;;;;6296281;28;20556;-61
2021/06/23 10:23:05;;;;;;;10.35;9.65;;;32.70;59.30;;;;;;6299800;28;20233;-61
2021/06/23 10:26:11;;;;;;;9.02;8.32;;;32.70;60.00;;;;;;6299630;28;20236;-62
2021/06/23 10:29:21;;;;;;;11.35;10.20;;;33.00;58.90;;;;;;6299632;28;20241;-65
2021/06/23 10:32:25;;;;;;;14.93;13.40;;;33.00;58.00;;;;;;6298653;28;20237;-64
2021/06/23 10:35:28;;;;;;;10.13;9.00;;;32.50;59.10;;;;;;6298732;28;20249;-64
2021/06/23 10:38:33;;;;;;;13.00;9.48;;;32.20;59.60;;;;;;6291932;28;20241;-60
2021/06/23 10:41:40;;;;;;;10.52;9.48;;;32.20;58.90;;;;;;6294503;28;20237;-61
2021/06/23 10:44:53;;;;;;;11.65;9.18;;;32.40;58.80;;;;;;6299032;28;20230;-59
2021/06/23 10:48:02;;;;;;;10.55;9.55;;;32.80;57.40;;;;;;6299006;28;20230;-61
2021/06/23 10:51:24;;;;;;;8.95;8.13;;;32.90;57.20;;;;;;6299220;28;20240;-58
2021/06/23 10:54:40;;;;;;;11.27;9.63;;;33.10;56.70;;;;;;6274032;28;20678;-60
2021/06/23 10:57:47;;;;;;;10.57;9.13;;;32.70;55.80;;;;;;6274375;28;20215;-63
2021/06/23 11:00:50;;;;;;;9.43;8.23;;;32.80;56.70;;;;;;6264879;28;20226;-63
2021/06/23 11:04:02;;;;;;;9.57;8.77;;;33.00;57.00;;;;;;6273917;28;20705;-69
2021/06/23 11:07:05;;;;;;;10.40;9.40;;;33.10;56.30;;;;;;6274101;28;20381;-70
2021/06/23 11:10:34;;;;;;;10.30;9.35;;;32.90;57.00;;;;;;6274198;28;20234;-65
2021/06/23 11:13:40;;;;;;;10.65;9.55;;;33.00;55.90;;;;;;6274138;28;20231;-66
2021/06/23 11:16:43;;;;;;;10.25;8.32;;;33.20;55.60;;;;;;6273602;28;20550;-66
2021/06/23 11:19:46;;;;;;;8.50;7.72;;;33.30;54.60;;;;;;6273410;28;20230;-65
2021/06/23 11:22:50;;;;;;;10.38;8.57;;;33.30;53.70;;;;;;6273775;28;20245;-65
2021/06/23 11:25:53;;;;;;;9.55;8.07;;;33.30;53.00;;;;;;6272424;28;20685;-63
2021/06/23 11:29:20;;;;;;;10.07;9.10;;;33.30;53.20;;;;;;6273903;28;20246;-64
2021/06/23 11:32:26;;;;;;;9.57;8.52;;;33.20;54.00;;;;;;6273327;28;20682;-66
2021/06/23 11:35:30;;;;;;;10.13;7.18;;;32.80;53.90;;;;;;6273783;28;20231;-64
2021/06/23 11:38:34;;;;;;;8.68;6.63;;;33.00;51.50;;;;;;6272073;28;20797;-65
2021/06/23 11:41:38;;;;;;;9.38;6.72;;;33.20;50.30;;;;;;6269500;28;20665;-69
2021/06/23 11:44:43;;;;;;;9.02;6.93;;;33.20;50.30;;;;;;6273076;28;20564;-62
2021/06/23 11:47:46;;;;;;;8.65;7.10;;;33.30;50.40;;;;;;6276955;28;20284;-64
2021/06/23 11:50:50;;;;;;;11.63;6.80;;;33.30;51.90;;;;;;6278035;28;20231;-63
2021/06/23 11:53:53;;;;;;;7.15;6.65;;;33.50;52.40;;;;;;6277374;28;20227;-64
2021/06/23 11:56:56;;;;;;;6.68;6.07;;;33.60;50.50;;;;;;6278184;28;20679;-64
2021/06/23 12:00:01;;;;;;;8.40;6.95;;;33.80;49.10;;;;;;6278223;28;20231;-65
2021/06/23 12:03:06;;;;;;;11.88;8.63;;;33.70;50.90;;;;;;6278018;28;20720;-64
2021/06/23 12:06:10;;;;;;;7.95;7.13;;;33.80;51.10;;;;;;6273555;28;20235;-63
2021/06/23 12:09:13;;;;;;;10.68;7.40;;;34.00;49.70;;;;;;6277805;28;20246;-64
2021/06/23 12:12:16;;;;;;;7.32;6.68;;;34.00;48.20;;;;;;6277732;28;20226;-61
2021/06/23 12:15:22;;;;;;;6.60;5.97;;;33.80;48.30;;;;;;6277644;28;20230;-63
2021/06/23 12:18:26;;;;;;;7.57;6.75;;;33.80;47.60;;;;;;6286196;28;20226;-62
2021/06/23 12:21:31;;;;;;;8.38;6.18;;;33.80;48.30;;;;;;6278396;28;20226;-61
2021/06/23 12:24:34;;;;;;;7.47;6.78;;;33.70;48.80;;;;;;6277523;28;20231;-63
2021/06/23 12:27:38;;;;;;;8.10;7.30;;;33.70;48.40;;;;;;6277002;28;20297;-62
2021/06/23 12:30:44;;;;;;;7.38;6.65;;;33.70;48.40;;;;;;6275174;28;20517;-61
2021/06/23 12:33:47;;;;;;;7.55;6.40;;;33.60;47.50;;;;;;6277407;28;20207;-62
2021/06/23 12:36:50;;;;;;;10.15;6.60;;;33.30;47.70;;;;;;6276987;28;20223;-64
2021/06/23 12:39:54;;;;;;;5.80;5.18;;;33.10;47.40;;;;;;6277475;28;20227;-62
2021/06/23 12:42:57;;;;;;;7.93;6.53;;;33.30;47.30;;;;;;6277608;28;20234;-63
2021/06/23 12:46:01;;;;;;;8.70;6.65;;;33.40;48.00;;;;;;6277343;28;20230;-62
2021/06/23 12:49:05;;;;;;;7.35;6.55;;;33.70;48.40;;;;;;6277521;28;20327;-63
2021/06/23 12:52:08;;;;;;;10.32;8.07;;;33.80;47.80;;;;;;6277023;28;20231;-62
2021/06/23 12:55:13;;;;;;;8.75;7.85;;;33.60;49.80;;;;;;6275801;28;20242;-63
2021/06/23 12:58:16;;;;;;;8.73;7.00;;;33.50;50.30;;;;;;6272609;28;20215;-61
2021/06/23 13:01:21;;;;;;;8.18;7.47;;;33.50;49.90;;;;;;6275312;28;20215;-64
2021/06/23 13:04:24;;;;;;;11.95;7.78;;;33.60;50.20;;;;;;6276116;28;20227;-65
2021/06/23 13:07:27;;;;;;;11.82;7.50;;;33.60;48.80;;;;;;6276630;28;20231;-64
2021/06/23 13:10:31;;;;;;;8.57;7.25;;;33.50;48.90;;;;;;6267415;28;20679;-64
2021/06/23 13:13:34;;;;;;;7.68;6.80;;;33.30;49.10;;;;;;6276374;28;20234;-64
2021/06/23 13:16:39;;;;;;;7.22;6.63;;;33.20;48.70;;;;;;6276350;28;20561;-64
2021/06/23 13:19:42;;;;;;;6.97;6.13;;;33.20;49.60;;;;;;6276087;28;20230;-64
2021/06/23 13:22:45;;;;;;;7.65;6.95;;;33.20;48.70;;;;;;6276194;28;20683;-65
2021/06/23 13:25:49;;;;;;;7.60;6.80;;;32.90;49.90;;;;;;6276230;28;20230;-65
2021/06/23 13:28:53;;;;;;;7.25;6.63;;;32.90;49.90;;;;;;6276120;28;20709;-63
2021/06/23 13:31:57;;;;;;;8.00;6.75;;;32.90;50.40;;;;;;6275186;28;20223;-65
2021/06/23 13:35:01;;;;;;;11.40;7.40;;;33.10;50.10;;;;;;6275609;28;20227;-65
2021/06/23 13:38:04;;;;;;;10.50;7.32;;;33.10;50.10;;;;;;6275499;28;20686;-64
2021/06/23 13:41:08;;;;;;;7.13;6.53;;;33.20;50.40;;;;;;6275664;28;20237;-63
2021/06/23 13:44:12;;;;;;;7.15;6.45;;;33.20;50.30;;;;;;6275591;28;20233;-63
2021/06/23 13:47:16;;;;;;;7.75;6.07;;;33.00;49.40;;;;;;6275543;28;20231;-64
2021/06/23 13:50:20;;;;;;;7.32;6.63;;;32.80;49.50;;;;;;6275428;28;20235;-63
2021/06/23 13:53:24;;;;;;;9.32;7.32;;;32.90;49.30;;;;;;6275007;28;20248;-64
2021/06/23 13:56:31;;;;;;;7.50;6.82;;;32.90;49.10;;;;;;6275168;28;20274;-64
2021/06/23 13:59:34;;;;;;;7.68;5.93;;;32.90;50.00;;;;;;6275347;28;20249;-64
2021/06/23 14:02:39;;;;;;;7.40;6.47;;;33.00;50.30;;;;;;6274726;28;20226;-63
2021/06/23 14:05:43;;;;;;;7.05;6.38;;;33.10;50.10;;;;;;6275396;28;20600;-64
2021/06/23 14:08:46;;;;;;;8.10;6.75;;;33.10;49.50;;;;;;6274800;28;20593;-64
2021/06/23 14:11:49;;;;;;;8.77;7.18;;;33.20;49.20;;;;;;6274119;28;20223;-64
2021/06/23 14:14:52;;;;;;;7.55;6.85;;;33.10;49.60;;;;;;6265436;28;20562;-64
2021/06/23 14:18:00;;;;;;;8.57;7.78;;;33.10;50.30;;;;;;6279921;28;20230;-64
2021/06/23 14:21:03;;;;;;;8.23;7.45;;;33.10;51.00;;;;;;6279528;28;20705;-65
2021/06/23 14:24:11;;;;;;;6.68;5.97;;;33.20;51.10;;;;;;6274797;28;20234;-64
2021/06/23 14:27:14;;;;;;;7.38;6.68;;;33.20;50.80;;;;;;6274865;28;20235;-64
2021/06/23 14:30:18;;;;;;;8.13;6.97;;;33.30;50.10;;;;;;6274497;28;20230;-64
2021/06/23 14:33:22;;;;;;;7.28;6.55;;;33.40;49.30;;;;;;6274525;28;20285;-64
2021/06/23 14:36:26;;;;;;;8.20;6.47;;;33.50;49.10;;;;;;6274432;28;20226;-64
2021/06/23 14:39:29;;;;;;;7.80;6.22;;;33.30;49.00;;;;;;6274540;28;20241;-65
2021/06/23 14:42:32;;;;;;;8.10;6.65;;;33.30;49.40;;;;;;6274359;28;20253;-65
2021/06/23 14:45:36;;;;;;;6.75;6.15;;;33.40;48.60;;;;;;6273567;28;20508;-63
2021/06/23 14:48:40;;;;;;;8.10;6.60;;;33.40;48.50;;;;;;6271284;28;20693;-62
2021/06/23 14:51:44;;;;;;;8.02;6.53;;;33.30;48.50;;;;;;6271768;28;20231;-64
2021/06/23 14:54:47;;;;;;;7.60;6.90;;;33.40;48.50;;;;;;6271687;28;20218;-64
2021/06/23 14:57:51;;;;;;;7.38;6.68;;;33.40;48.60;;;;;;6272168;28;20214;-62
2021/06/23 15:00:54;;;;;;;8.43;6.57;;;33.50;48.40;;;;;;6272272;28;20546;-62
2021/06/23 15:03:59;;;;;;;7.88;7.10;;;33.50;49.00;;;;;;6273858;28;20206;-63
2021/06/23 15:07:02;;;;;;;7.65;7.00;;;33.40;50.00;;;;;;6274033;28;20226;-61
2021/06/23 15:10:08;;;;;;;7.35;6.57;;;33.40;50.50;;;;;;6274200;28;20698;-62
2021/06/23 15:13:11;;;;;;;8.52;7.68;;;33.20;51.00;;;;;;6273057;28;20231;-63
2021/06/23 15:16:14;;;;;;;9.93;7.15;;;33.30;51.00;;;;;;6273248;28;20559;-64
2021/06/23 15:19:19;;;;;;;8.85;7.70;;;33.50;50.90;;;;;;6273597;28;20227;-62
2021/06/23 15:22:22;;;;;;;7.40;6.82;;;33.50;50.80;;;;;;6276736;28;20223;-62
2021/06/23 15:25:26;;;;;;;7.63;6.55;;;33.50;51.10;;;;;;6276573;28;20237;-65
2021/06/23 15:28:29;;;;;;;7.75;7.05;;;33.40;51.40;;;;;;6278950;28;20226;-65
2021/06/23 15:31:32;;;;;;;7.93;7.22;;;33.40;51.40;;;;;;6278154;28;20229;-63
2021/06/23 15:34:37;;;;;;;7.93;6.80;;;33.50;51.60;;;;;;6278988;28;20238;-65
2021/06/23 15:37:41;;;;;;;7.57;6.80;;;33.50;51.20;;;;;;6277735;28;20223;-64
2021/06/23 15:40:48;;;;;;;8.18;6.40;;;33.50;50.40;;;;;;6276884;28;20237;-63
2021/06/23 15:43:52;;;;;;;8.43;7.55;;;33.50;49.60;;;;;;6276562;28;20242;-63
2021/06/23 15:46:55;;;;;;;8.45;6.53;;;33.40;50.00;;;;;;6276362;28;20242;-63
2021/06/23 15:50:00;;;;;;;9.90;7.13;;;33.20;50.20;;;;;;6276416;28;20676;-64
2021/06/23 15:53:04;;;;;;;6.90;6.30;;;33.20;50.80;;;;;;6276812;28;20234;-64
2021/06/23 15:56:07;;;;;;;7.45;6.63;;;33.30;50.80;;;;;;6278379;28;20226;-63
2021/06/23 15:59:10;;;;;;;10.68;6.80;;;33.30;50.80;;;;;;6278033;28;20235;-64
2021/06/23 16:02:14;;;;;;;14.27;7.60;;;33.40;51.10;;;;;;6278430;28;20230;-64
2021/06/23 16:05:18;;;;;;;13.05;6.90;;;33.50;51.60;;;;;;6277984;28;20227;-64